sensor_id;sensor_type;location;lat;lon;timestamp;P1;durP1;ratioP1;P2;durP2;ratioP2
38994;SDS011;24769;18.712;99.000;2023-04-01T00:01:13;383.80;;;371.00;;
38994;SDS011;24769;18.712;99.000;2023-04-01T00:03:41;392.75;;;375.50;;
38994;SDS011;24769;18.712;99.000;2023-04-01T00:06:09;394.25;;;387.00;;
38994;SDS011;24769;18.712;99.000;2023-04-01T00:08:38;411.25;;;383.00;;
38994;SDS011;24769;18.712;99.000;2023-04-01T00:11:05;399.25;;;382.25;;
38994;SDS011;24769;18.712;99.000;2023-04-01T00:13:31;417.80;;;399.20;;
38994;SDS011;24769;18.712;99.000;2023-04-01T00:15:58;405.75;;;391.75;;
38994;SDS011;24769;18.712;99.000;2023-04-01T00:18:26;422.00;;;402.25;;
38994;SDS011;24769;18.712;99.000;2023-04-01T00:20:53;410.75;;;395.25;;
38994;SDS011;24769;18.712;99.000;2023-04-01T00:23:20;415.50;;;397.75;;
38994;SDS011;24769;18.712;99.000;2023-04-01T00:25:47;399.80;;;375.60;;
38994;SDS011;24769;18.712;99.000;2023-04-01T00:28:16;415.20;;;393.00;;
38994;SDS011;24769;18.712;99.000;2023-04-01T00:30:43;411.00;;;386.80;;
38994;SDS011;24769;18.712;99.000;2023-04-01T00:33:11;407.80;;;395.40;;
38994;SDS011;24769;18.712;99.000;2023-04-01T00:35:37;390.75;;;382.50;;
38994;SDS011;24769;18.712;99.000;2023-04-01T00:38:04;410.75;;;393.25;;
38994;SDS011;24769;18.712;99.000;2023-04-01T00:40:33;411.25;;;396.75;;
38994;SDS011;24769;18.712;99.000;2023-04-01T00:43:02;433.25;;;412.50;;
38994;SDS011;24769;18.712;99.000;2023-04-01T00:45:36;417.25;;;398.25;;
38994;SDS011;24769;18.712;99.000;2023-04-01T00:48:16;408.75;;;404.75;;
38994;SDS011;24769;18.712;99.000;2023-04-01T00:50:48;431.00;;;408.00;;
38994;SDS011;24769;18.712;99.000;2023-04-01T00:53:40;436.75;;;413.75;;
38994;SDS011;24769;18.712;99.000;2023-04-01T00:56:10;426.75;;;411.00;;
38994;SDS011;24769;18.712;99.000;2023-04-01T00:58:41;404.40;;;398.40;;
38994;SDS011;24769;18.712;99.000;2023-04-01T01:01:14;435.00;;;422.50;;
38994;SDS011;24769;18.712;99.000;2023-04-01T01:03:41;427.75;;;407.00;;
38994;SDS011;24769;18.712;99.000;2023-04-01T01:06:25;411.60;;;395.20;;
38994;SDS011;24769;18.712;99.000;2023-04-01T01:09:07;433.80;;;417.20;;
38994;SDS011;24769;18.712;99.000;2023-04-01T01:14:29;439.50;;;418.75;;
38994;SDS011;24769;18.712;99.000;2023-04-01T01:17:51;443.75;;;425.75;;
38994;SDS011;24769;18.712;99.000;2023-04-01T01:36:38;417.50;;;400.00;;
38994;SDS011;24769;18.712;99.000;2023-04-01T01:39:07;413.25;;;397.75;;
38994;SDS011;24769;18.712;99.000;2023-04-01T01:41:38;414.25;;;397.75;;
38994;SDS011;24769;18.712;99.000;2023-04-01T01:44:07;421.50;;;407.75;;
38994;SDS011;24769;18.712;99.000;2023-04-01T01:46:36;408.00;;;392.00;;
38994;SDS011;24769;18.712;99.000;2023-04-01T01:49:09;393.75;;;382.25;;
38994;SDS011;24769;18.712;99.000;2023-04-01T01:51:38;398.00;;;386.75;;
38994;SDS011;24769;18.712;99.000;2023-04-01T01:54:05;408.50;;;396.25;;
38994;SDS011;24769;18.712;99.000;2023-04-01T01:56:31;411.50;;;393.00;;
38994;SDS011;24769;18.712;99.000;2023-04-01T01:59:04;418.00;;;401.00;;
38994;SDS011;24769;18.712;99.000;2023-04-01T02:01:37;365.50;;;356.75;;
38994;SDS011;24769;18.712;99.000;2023-04-01T02:04:10;365.00;;;358.20;;
38994;SDS011;24769;18.712;99.000;2023-04-01T02:06:42;404.50;;;390.00;;
38994;SDS011;24769;18.712;99.000;2023-04-01T02:09:31;385.00;;;374.25;;
38994;SDS011;24769;18.712;99.000;2023-04-01T02:12:00;394.60;;;381.80;;
38994;SDS011;24769;18.712;99.000;2023-04-01T02:14:37;391.80;;;370.20;;
38994;SDS011;24769;18.712;99.000;2023-04-01T02:17:20;391.50;;;370.50;;
38994;SDS011;24769;18.712;99.000;2023-04-01T02:22:38;368.50;;;366.75;;
38994;SDS011;24769;18.712;99.000;2023-04-01T02:25:09;380.60;;;361.60;;
38994;SDS011;24769;18.712;99.000;2023-04-01T02:27:38;395.00;;;386.25;;
38994;SDS011;24769;18.712;99.000;2023-04-01T02:30:07;396.00;;;379.50;;
38994;SDS011;24769;18.712;99.000;2023-04-01T02:32:34;405.50;;;394.50;;
38994;SDS011;24769;18.712;99.000;2023-04-01T02:35:10;397.25;;;382.25;;
38994;SDS011;24769;18.712;99.000;2023-04-01T02:37:38;398.75;;;388.50;;
38994;SDS011;24769;18.712;99.000;2023-04-01T02:40:10;390.25;;;377.50;;
38994;SDS011;24769;18.712;99.000;2023-04-01T02:42:38;422.50;;;404.25;;
38994;SDS011;24769;18.712;99.000;2023-04-01T02:45:05;407.67;;;393.00;;
38994;SDS011;24769;18.712;99.000;2023-04-01T02:47:32;377.50;;;364.00;;
38994;SDS011;24769;18.712;99.000;2023-04-01T02:49:59;411.25;;;390.50;;
38994;SDS011;24769;18.712;99.000;2023-04-01T02:52:25;397.75;;;384.25;;
38994;SDS011;24769;18.712;99.000;2023-04-01T02:54:55;373.25;;;368.00;;
38994;SDS011;24769;18.712;99.000;2023-04-01T02:57:22;383.75;;;370.75;;
38994;SDS011;24769;18.712;99.000;2023-04-01T02:59:50;376.20;;;366.20;;
38994;SDS011;24769;18.712;99.000;2023-04-01T03:02:17;378.00;;;369.50;;
38994;SDS011;24769;18.712;99.000;2023-04-01T03:04:47;372.80;;;363.00;;
38994;SDS011;24769;18.712;99.000;2023-04-01T03:07:13;392.60;;;376.80;;
38994;SDS011;24769;18.712;99.000;2023-04-01T03:09:40;378.80;;;368.00;;
38994;SDS011;24769;18.712;99.000;2023-04-01T03:12:07;366.00;;;353.60;;
38994;SDS011;24769;18.712;99.000;2023-04-01T03:14:33;365.80;;;357.60;;
38994;SDS011;24769;18.712;99.000;2023-04-01T03:17:00;366.40;;;353.60;;
38994;SDS011;24769;18.712;99.000;2023-04-01T03:19:27;372.20;;;364.60;;
38994;SDS011;24769;18.712;99.000;2023-04-01T03:21:53;366.20;;;348.80;;
38994;SDS011;24769;18.712;99.000;2023-04-01T03:24:20;355.00;;;350.50;;
38994;SDS011;24769;18.712;99.000;2023-04-01T03:26:47;340.00;;;335.25;;
38994;SDS011;24769;18.712;99.000;2023-04-01T03:29:13;350.20;;;341.60;;
38994;SDS011;24769;18.712;99.000;2023-04-01T03:31:41;316.80;;;308.80;;
38994;SDS011;24769;18.712;99.000;2023-04-01T03:34:07;313.00;;;309.20;;
38994;SDS011;24769;18.712;99.000;2023-04-01T03:36:35;336.60;;;326.80;;
38994;SDS011;24769;18.712;99.000;2023-04-01T03:39:02;324.00;;;317.75;;
38994;SDS011;24769;18.712;99.000;2023-04-01T03:41:29;328.00;;;320.20;;
38994;SDS011;24769;18.712;99.000;2023-04-01T03:43:56;319.00;;;309.50;;
38994;SDS011;24769;18.712;99.000;2023-04-01T03:46:22;299.20;;;292.60;;
38994;SDS011;24769;18.712;99.000;2023-04-01T03:48:49;301.00;;;291.60;;
38994;SDS011;24769;18.712;99.000;2023-04-01T03:51:16;293.75;;;287.25;;
38994;SDS011;24769;18.712;99.000;2023-04-01T03:53:43;282.00;;;278.25;;
38994;SDS011;24769;18.712;99.000;2023-04-01T03:56:10;288.50;;;281.25;;
38994;SDS011;24769;18.712;99.000;2023-04-01T03:58:37;284.50;;;278.75;;
38994;SDS011;24769;18.712;99.000;2023-04-01T04:01:13;283.00;;;275.00;;
38994;SDS011;24769;18.712;99.000;2023-04-01T04:03:47;269.75;;;266.50;;
38994;SDS011;24769;18.712;99.000;2023-04-01T04:06:15;261.75;;;258.75;;
38994;SDS011;24769;18.712;99.000;2023-04-01T04:08:43;268.00;;;265.00;;
38994;SDS011;24769;18.712;99.000;2023-04-01T04:11:10;258.67;;;255.33;;
38994;SDS011;24769;18.712;99.000;2023-04-01T04:13:37;253.00;;;252.33;;
38994;SDS011;24769;18.712;99.000;2023-04-01T04:16:08;251.00;;;243.33;;
38994;SDS011;24769;18.712;99.000;2023-04-01T04:18:36;251.00;;;246.67;;
38994;SDS011;24769;18.712;99.000;2023-04-01T04:21:03;252.00;;;248.00;;
38994;SDS011;24769;18.712;99.000;2023-04-01T04:23:31;258.00;;;254.00;;
38994;SDS011;24769;18.712;99.000;2023-04-01T04:26:00;240.67;;;240.67;;
38994;SDS011;24769;18.712;99.000;2023-04-01T04:28:28;235.00;;;232.00;;
38994;SDS011;24769;18.712;99.000;2023-04-01T04:30:55;241.25;;;238.00;;
38994;SDS011;24769;18.712;99.000;2023-04-01T04:33:22;245.25;;;242.25;;
38994;SDS011;24769;18.712;99.000;2023-04-01T04:35:49;231.00;;;229.75;;
38994;SDS011;24769;18.712;99.000;2023-04-01T04:38:16;239.25;;;235.25;;
38994;SDS011;24769;18.712;99.000;2023-04-01T04:40:43;227.00;;;225.25;;
38994;SDS011;24769;18.712;99.000;2023-04-01T04:43:11;225.25;;;223.75;;
38994;SDS011;24769;18.712;99.000;2023-04-01T04:45:38;237.50;;;232.75;;
38994;SDS011;24769;18.712;99.000;2023-04-01T04:48:09;235.50;;;229.25;;
38994;SDS011;24769;18.712;99.000;2023-04-01T04:50:44;228.50;;;221.50;;
38994;SDS011;24769;18.712;99.000;2023-04-01T04:53:12;228.50;;;226.00;;
38994;SDS011;24769;18.712;99.000;2023-04-01T04:55:48;210.75;;;209.25;;
38994;SDS011;24769;18.712;99.000;2023-04-01T04:58:15;232.75;;;230.00;;
38994;SDS011;24769;18.712;99.000;2023-04-01T05:00:42;222.75;;;221.00;;
38994;SDS011;24769;18.712;99.000;2023-04-01T05:03:09;212.25;;;209.75;;
38994;SDS011;24769;18.712;99.000;2023-04-01T05:05:36;224.75;;;224.25;;
38994;SDS011;24769;18.712;99.000;2023-04-01T05:08:03;215.75;;;213.25;;
38994;SDS011;24769;18.712;99.000;2023-04-01T05:10:30;205.75;;;204.75;;
38994;SDS011;24769;18.712;99.000;2023-04-01T05:12:57;233.00;;;227.75;;
38994;SDS011;24769;18.712;99.000;2023-04-01T05:15:24;227.00;;;223.75;;
38994;SDS011;24769;18.712;99.000;2023-04-01T05:17:50;219.25;;;215.50;;
38994;SDS011;24769;18.712;99.000;2023-04-01T05:20:17;206.00;;;202.25;;
38994;SDS011;24769;18.712;99.000;2023-04-01T05:22:44;207.50;;;205.25;;
38994;SDS011;24769;18.712;99.000;2023-04-01T05:25:10;211.25;;;211.25;;
38994;SDS011;24769;18.712;99.000;2023-04-01T05:27:37;200.00;;;198.20;;
38994;SDS011;24769;18.712;99.000;2023-04-01T05:30:04;194.60;;;190.80;;
38994;SDS011;24769;18.712;99.000;2023-04-01T05:32:31;201.60;;;196.80;;
38994;SDS011;24769;18.712;99.000;2023-04-01T05:34:58;196.20;;;196.00;;
38994;SDS011;24769;18.712;99.000;2023-04-01T05:37:27;195.20;;;192.80;;
38994;SDS011;24769;18.712;99.000;2023-04-01T05:39:53;171.60;;;170.00;;
38994;SDS011;24769;18.712;99.000;2023-04-01T05:42:20;187.00;;;186.80;;
38994;SDS011;24769;18.712;99.000;2023-04-01T05:44:47;181.40;;;180.00;;
38994;SDS011;24769;18.712;99.000;2023-04-01T05:47:13;185.20;;;180.60;;
38994;SDS011;24769;18.712;99.000;2023-04-01T05:49:40;183.00;;;182.00;;
38994;SDS011;24769;18.712;99.000;2023-04-01T05:52:07;191.00;;;190.40;;
38994;SDS011;24769;18.712;99.000;2023-04-01T05:54:34;195.00;;;194.00;;
38994;SDS011;24769;18.712;99.000;2023-04-01T05:57:00;186.80;;;184.80;;
38994;SDS011;24769;18.712;99.000;2023-04-01T05:59:27;188.40;;;184.00;;
38994;SDS011;24769;18.712;99.000;2023-04-01T06:01:53;191.60;;;190.20;;
38994;SDS011;24769;18.712;99.000;2023-04-01T06:04:20;191.20;;;190.40;;
38994;SDS011;24769;18.712;99.000;2023-04-01T06:06:47;187.60;;;186.40;;
38994;SDS011;24769;18.712;99.000;2023-04-01T06:17:23;183.00;;;181.80;;
38994;SDS011;24769;18.712;99.000;2023-04-01T06:20:00;199.60;;;199.60;;
38994;SDS011;24769;18.712;99.000;2023-04-01T06:42:25;192.00;;;191.00;;
38994;SDS011;24769;18.712;99.000;2023-04-01T06:47:49;194.40;;;192.60;;
38994;SDS011;24769;18.712;99.000;2023-04-01T06:50:53;200.00;;;198.40;;
38994;SDS011;24769;18.712;99.000;2023-04-01T06:56:31;212.50;;;209.75;;
38994;SDS011;24769;18.712;99.000;2023-04-01T06:59:10;197.60;;;194.80;;
38994;SDS011;24769;18.712;99.000;2023-04-01T07:01:47;205.20;;;204.00;;
38994;SDS011;24769;18.712;99.000;2023-04-01T07:04:22;199.80;;;196.80;;
38994;SDS011;24769;18.712;99.000;2023-04-01T07:06:57;202.60;;;200.60;;
38994;SDS011;24769;18.712;99.000;2023-04-01T07:09:32;205.75;;;205.75;;
38994;SDS011;24769;18.712;99.000;2023-04-01T07:12:04;210.60;;;210.20;;
38994;SDS011;24769;18.712;99.000;2023-04-01T07:14:58;212.60;;;207.60;;
38994;SDS011;24769;18.712;99.000;2023-04-01T07:17:37;200.40;;;200.00;;
38994;SDS011;24769;18.712;99.000;2023-04-01T07:23:00;214.40;;;211.00;;
38994;SDS011;24769;18.712;99.000;2023-04-01T07:25:37;196.40;;;194.20;;
38994;SDS011;24769;18.712;99.000;2023-04-01T07:28:11;213.80;;;211.00;;
38994;SDS011;24769;18.712;99.000;2023-04-01T07:30:53;210.00;;;208.50;;
38994;SDS011;24769;18.712;99.000;2023-04-01T07:42:00;206.50;;;202.75;;
38994;SDS011;24769;18.712;99.000;2023-04-01T07:47:41;205.40;;;205.00;;
38994;SDS011;24769;18.712;99.000;2023-04-01T07:50:29;210.60;;;208.60;;
38994;SDS011;24769;18.712;99.000;2023-04-01T07:58:18;221.25;;;216.75;;
38994;SDS011;24769;18.712;99.000;2023-04-01T08:00:59;204.50;;;199.00;;
38994;SDS011;24769;18.712;99.000;2023-04-01T08:05:59;221.50;;;218.25;;
38994;SDS011;24769;18.712;99.000;2023-04-01T08:09:10;221.25;;;219.50;;
38994;SDS011;24769;18.712;99.000;2023-04-01T08:22:33;208.40;;;207.00;;
38994;SDS011;24769;18.712;99.000;2023-04-01T08:25:06;204.60;;;201.20;;
38994;SDS011;24769;18.712;99.000;2023-04-01T08:27:41;202.20;;;198.60;;
38994;SDS011;24769;18.712;99.000;2023-04-01T08:30:17;206.20;;;205.00;;
38994;SDS011;24769;18.712;99.000;2023-04-01T08:32:50;184.00;;;179.80;;
38994;SDS011;24769;18.712;99.000;2023-04-01T08:35:37;197.20;;;196.20;;
38994;SDS011;24769;18.712;99.000;2023-04-01T08:52:01;207.00;;;205.20;;
38994;SDS011;24769;18.712;99.000;2023-04-01T08:54:36;204.20;;;202.00;;
38994;SDS011;24769;18.712;99.000;2023-04-01T08:57:17;194.00;;;191.40;;
38994;SDS011;24769;18.712;99.000;2023-04-01T09:27:11;188.00;;;187.00;;
38994;SDS011;24769;18.712;99.000;2023-04-01T09:46:14;199.40;;;197.00;;
38994;SDS011;24769;18.712;99.000;2023-04-01T09:52:24;197.60;;;196.00;;
38994;SDS011;24769;18.712;99.000;2023-04-01T09:57:26;180.00;;;176.20;;
38994;SDS011;24769;18.712;99.000;2023-04-01T10:03:20;188.80;;;186.80;;
38994;SDS011;24769;18.712;99.000;2023-04-01T10:06:17;187.00;;;184.80;;
38994;SDS011;24769;18.712;99.000;2023-04-01T10:23:28;191.00;;;189.00;;
38994;SDS011;24769;18.712;99.000;2023-04-01T10:31:55;195.20;;;192.80;;
38994;SDS011;24769;18.712;99.000;2023-04-01T10:40:31;181.20;;;181.20;;
38994;SDS011;24769;18.712;99.000;2023-04-01T10:43:22;199.80;;;193.20;;
38994;SDS011;24769;18.712;99.000;2023-04-01T11:06:51;205.40;;;203.00;;
38994;SDS011;24769;18.712;99.000;2023-04-01T11:26:50;186.25;;;185.25;;
38994;SDS011;24769;18.712;99.000;2023-04-01T11:40:59;197.25;;;192.50;;
38994;SDS011;24769;18.712;99.000;2023-04-01T11:44:29;202.50;;;200.75;;
38994;SDS011;24769;18.712;99.000;2023-04-01T11:46:33;203.25;;;203.00;;
38994;SDS011;24769;18.712;99.000;2023-04-01T12:10:01;203.25;;;197.00;;
38994;SDS011;24769;18.712;99.000;2023-04-01T12:18:12;219.75;;;212.00;;
38994;SDS011;24769;18.712;99.000;2023-04-01T12:34:41;203.50;;;199.00;;
38994;SDS011;24769;18.712;99.000;2023-04-01T12:46:06;218.25;;;211.00;;
38994;SDS011;24769;18.712;99.000;2023-04-01T12:48:52;215.25;;;212.25;;
38994;SDS011;24769;18.712;99.000;2023-04-01T12:51:34;209.00;;;206.25;;
38994;SDS011;24769;18.712;99.000;2023-04-01T13:00:31;207.25;;;200.50;;
38994;SDS011;24769;18.712;99.000;2023-04-01T13:11:09;208.50;;;207.50;;
38994;SDS011;24769;18.712;99.000;2023-04-01T13:18:58;222.25;;;218.00;;
38994;SDS011;24769;18.712;99.000;2023-04-01T13:21:51;221.25;;;215.50;;
38994;SDS011;24769;18.712;99.000;2023-04-01T13:30:19;221.75;;;215.50;;
38994;SDS011;24769;18.712;99.000;2023-04-01T13:35:45;217.00;;;214.00;;
38994;SDS011;24769;18.712;99.000;2023-04-01T13:43:34;215.25;;;212.25;;
38994;SDS011;24769;18.712;99.000;2023-04-01T13:46:34;224.75;;;218.50;;
38994;SDS011;24769;18.712;99.000;2023-04-01T14:03:14;216.50;;;208.25;;
38994;SDS011;24769;18.712;99.000;2023-04-01T14:05:50;223.00;;;214.67;;
38994;SDS011;24769;18.712;99.000;2023-04-01T14:17:00;223.33;;;218.33;;
38994;SDS011;24769;18.712;99.000;2023-04-01T14:24:50;223.67;;;217.00;;
38994;SDS011;24769;18.712;99.000;2023-04-01T14:27:48;227.67;;;226.00;;
38994;SDS011;24769;18.712;99.000;2023-04-01T14:39:22;223.67;;;221.00;;
38994;SDS011;24769;18.712;99.000;2023-04-01T14:58:11;222.00;;;211.67;;
38994;SDS011;24769;18.712;99.000;2023-04-01T15:03:29;220.00;;;217.67;;
38994;SDS011;24769;18.712;99.000;2023-04-01T15:08:57;207.75;;;205.00;;
38994;SDS011;24769;18.712;99.000;2023-04-01T15:12:05;202.25;;;200.50;;
38994;SDS011;24769;18.712;99.000;2023-04-01T15:15:02;191.25;;;187.50;;
38994;SDS011;24769;18.712;99.000;2023-04-01T15:20:38;186.00;;;185.25;;
38994;SDS011;24769;18.712;99.000;2023-04-01T15:37:53;202.75;;;197.75;;
38994;SDS011;24769;18.712;99.000;2023-04-01T15:53:42;177.00;;;176.75;;
38994;SDS011;24769;18.712;99.000;2023-04-01T16:07:19;208.25;;;204.50;;
38994;SDS011;24769;18.712;99.000;2023-04-01T16:10:09;201.50;;;200.00;;
38994;SDS011;24769;18.712;99.000;2023-04-01T16:18:19;203.75;;;198.75;;
38994;SDS011;24769;18.712;99.000;2023-04-01T16:23:33;202.67;;;201.00;;
38994;SDS011;24769;18.712;99.000;2023-04-01T16:26:07;210.75;;;209.50;;
38994;SDS011;24769;18.712;99.000;2023-04-01T16:31:25;198.00;;;196.00;;
38994;SDS011;24769;18.712;99.000;2023-04-01T16:42:51;236.00;;;231.00;;
38994;SDS011;24769;18.712;99.000;2023-04-01T16:51:00;254.25;;;248.75;;
38994;SDS011;24769;18.712;99.000;2023-04-01T16:58:41;260.25;;;259.00;;
38994;SDS011;24769;18.712;99.000;2023-04-01T17:03:51;271.50;;;262.75;;
38994;SDS011;24769;18.712;99.000;2023-04-01T17:06:41;253.25;;;250.25;;
38994;SDS011;24769;18.712;99.000;2023-04-01T17:09:33;267.50;;;264.25;;
38994;SDS011;24769;18.712;99.000;2023-04-01T17:26:48;270.75;;;268.50;;
38994;SDS011;24769;18.712;99.000;2023-04-01T17:35:58;278.00;;;272.25;;
38994;SDS011;24769;18.712;99.000;2023-04-01T17:50:21;278.00;;;271.00;;
38994;SDS011;24769;18.712;99.000;2023-04-01T17:53:36;274.75;;;269.00;;
38994;SDS011;24769;18.712;99.000;2023-04-01T18:01:39;274.75;;;268.00;;
38994;SDS011;24769;18.712;99.000;2023-04-01T18:07:10;284.75;;;275.75;;
38994;SDS011;24769;18.712;99.000;2023-04-01T18:10:08;268.50;;;267.50;;
38994;SDS011;24769;18.712;99.000;2023-04-01T18:13:05;270.00;;;265.75;;
38994;SDS011;24769;18.712;99.000;2023-04-01T18:16:08;268.75;;;263.50;;
38994;SDS011;24769;18.712;99.000;2023-04-01T18:18:58;277.50;;;275.00;;
38994;SDS011;24769;18.712;99.000;2023-04-01T18:21:43;278.00;;;270.25;;
38994;SDS011;24769;18.712;99.000;2023-04-01T18:24:40;273.25;;;267.25;;
38994;SDS011;24769;18.712;99.000;2023-04-01T18:27:18;276.00;;;275.50;;
38994;SDS011;24769;18.712;99.000;2023-04-01T18:30:11;277.00;;;276.25;;
38994;SDS011;24769;18.712;99.000;2023-04-01T18:32:52;284.75;;;277.75;;
38994;SDS011;24769;18.712;99.000;2023-04-01T18:35:45;278.75;;;267.25;;
38994;SDS011;24769;18.712;99.000;2023-04-01T18:38:23;271.00;;;266.00;;
38994;SDS011;24769;18.712;99.000;2023-04-01T18:46:24;278.75;;;275.50;;
38994;SDS011;24769;18.712;99.000;2023-04-01T18:54:27;263.00;;;258.25;;
38994;SDS011;24769;18.712;99.000;2023-04-01T18:57:01;273.50;;;270.50;;
38994;SDS011;24769;18.712;99.000;2023-04-01T18:59:57;278.25;;;268.75;;
38994;SDS011;24769;18.712;99.000;2023-04-01T19:10:17;283.75;;;271.75;;
38994;SDS011;24769;18.712;99.000;2023-04-01T19:26:39;270.25;;;263.50;;
38994;SDS011;24769;18.712;99.000;2023-04-01T19:29:18;267.00;;;262.50;;
38994;SDS011;24769;18.712;99.000;2023-04-01T19:34:39;274.75;;;266.75;;
38994;SDS011;24769;18.712;99.000;2023-04-01T19:37:23;284.75;;;271.00;;
38994;SDS011;24769;18.712;99.000;2023-04-01T19:46:18;274.25;;;265.00;;
38994;SDS011;24769;18.712;99.000;2023-04-01T19:51:37;271.50;;;267.50;;
38994;SDS011;24769;18.712;99.000;2023-04-01T19:59:50;267.50;;;258.00;;
38994;SDS011;24769;18.712;99.000;2023-04-01T20:07:58;255.75;;;251.25;;
38994;SDS011;24769;18.712;99.000;2023-04-01T20:16:19;255.50;;;254.25;;
38994;SDS011;24769;18.712;99.000;2023-04-01T20:21:33;283.75;;;276.50;;
38994;SDS011;24769;18.712;99.000;2023-04-01T20:26:43;270.00;;;264.50;;
38994;SDS011;24769;18.712;99.000;2023-04-01T20:40:37;270.25;;;268.25;;
38994;SDS011;24769;18.712;99.000;2023-04-01T20:52:14;263.75;;;259.75;;
38994;SDS011;24769;18.712;99.000;2023-04-01T20:54:59;250.00;;;244.00;;
38994;SDS011;24769;18.712;99.000;2023-04-01T21:00:52;266.75;;;259.00;;
38994;SDS011;24769;18.712;99.000;2023-04-01T21:20:29;277.25;;;274.25;;
38994;SDS011;24769;18.712;99.000;2023-04-01T21:23:11;268.00;;;261.25;;
38994;SDS011;24769;18.712;99.000;2023-04-01T21:40:02;306.75;;;294.25;;
38994;SDS011;24769;18.712;99.000;2023-04-01T21:42:49;281.50;;;276.00;;
38994;SDS011;24769;18.712;99.000;2023-04-01T21:45:52;285.75;;;275.25;;
38994;SDS011;24769;18.712;99.000;2023-04-01T22:05:37;272.00;;;267.25;;
38994;SDS011;24769;18.712;99.000;2023-04-01T22:08:20;261.50;;;257.75;;
38994;SDS011;24769;18.712;99.000;2023-04-01T22:13:50;269.75;;;265.75;;
38994;SDS011;24769;18.712;99.000;2023-04-01T22:16:56;276.50;;;268.25;;
38994;SDS011;24769;18.712;99.000;2023-04-01T22:22:37;296.50;;;289.50;;
38994;SDS011;24769;18.712;99.000;2023-04-01T22:25:11;279.50;;;273.75;;
38994;SDS011;24769;18.712;99.000;2023-04-01T22:27:47;291.50;;;290.50;;
38994;SDS011;24769;18.712;99.000;2023-04-01T22:38:23;307.25;;;297.25;;
38994;SDS011;24769;18.712;99.000;2023-04-01T22:41:41;289.33;;;282.67;;
38994;SDS011;24769;18.712;99.000;2023-04-01T22:44:30;286.75;;;282.25;;
38994;SDS011;24769;18.712;99.000;2023-04-01T22:47:12;299.25;;;289.25;;
38994;SDS011;24769;18.712;99.000;2023-04-01T22:49:53;289.50;;;279.25;;
38994;SDS011;24769;18.712;99.000;2023-04-01T22:52:31;289.50;;;285.25;;
38994;SDS011;24769;18.712;99.000;2023-04-01T22:55:04;318.67;;;311.33;;
38994;SDS011;24769;18.712;99.000;2023-04-01T22:57:46;289.00;;;287.25;;
38994;SDS011;24769;18.712;99.000;2023-04-01T23:06:02;295.75;;;288.50;;
38994;SDS011;24769;18.712;99.000;2023-04-01T23:11:32;295.00;;;288.75;;
38994;SDS011;24769;18.712;99.000;2023-04-01T23:22:21;291.00;;;282.75;;
38994;SDS011;24769;18.712;99.000;2023-04-01T23:25:53;288.00;;;284.50;;
38994;SDS011;24769;18.712;99.000;2023-04-01T23:28:31;309.00;;;293.75;;
38994;SDS011;24769;18.712;99.000;2023-04-01T23:31:37;303.50;;;300.75;;
38994;SDS011;24769;18.712;99.000;2023-04-01T23:36:37;313.00;;;303.33;;
38994;SDS011;24769;18.712;99.000;2023-04-01T23:42:04;294.00;;;286.25;;
38994;SDS011;24769;18.712;99.000;2023-04-01T23:44:50;297.25;;;292.00;;
38994;SDS011;24769;18.712;99.000;2023-04-01T23:47:21;300.00;;;292.50;;
38994;SDS011;24769;18.712;99.000;2023-04-01T23:49:56;289.50;;;280.00;;
38994;SDS011;24769;18.712;99.000;2023-04-01T23:52:30;312.00;;;298.00;;
38994;SDS011;24769;18.712;99.000;2023-04-01T23:55:24;293.00;;;288.50;;
38994;SDS011;24769;18.712;99.000;2023-04-01T23:58:01;287.75;;;278.25;;
